Domov               UVHVVR             MKGP            O straneh              
ZDRAVSTVENO VARSTVO RASTLIN
  MREŽA AGROMET. POSTAJ
 ► PROGNOSTIČNA OBVESTILA
AGROMETEOROLOŠKI PODATKI -
ARSO
OBVLADOVANJE TVEGANJ ZARADI
NEUGODNIH VREMENSKIH RAZMER
  ► NARAVNE NESREČE
  ► SUŠA/MOČA
  ► NAMAKANJE
  ► ŽLED (gozdarstvo)
KARTOGRAFSKI PRIKAZI
SPLETNE POVEZAVE
PROJEKTI IN PUBLIKACIJE

AGROMETEOROLOŠKA MREŽA: VREMENSKE POSTAJE IN FENOLOŠKA OPAZOVANJA

Pregled podatkov za lokacijo Bistrica ob Sotli, meteorološka postaja 39146

Pregled senzorjev na lokaciji

ID Ime Zadnja
vrednost
Datum
zadnje
spremembe
Tip
senzorja
1892 Padavine 0.2 mm (mm) 0 mm 17.10.2017 23:30 Rain-O-Matic
1893 Temperatura 2 m ( °C) 12,55 °C 17.10.2017 23:30 50YA
1894 Relativna vlaga 2 m (% RH) 96,95 % RH 17.10.2017 23:30 50YA
1895 Omočenost lista (U) 1 U 17.10.2017 23:29 A730WET

Pregled podatkov zadnjih 24 ur

Zap.
št.
Datum in čas Bistrica ob Sotli
Omočenost
lista
Padavine
0.2
mm
Relativna
vlaga
2
m
Temperatura
2
m
0 17.10.2017 22:30 1 0 96,95 12,55
1 17.10.2017 22:00 1 0 96,07 12,77
2 17.10.2017 21:30 1 0 93,8 13,38
3 17.10.2017 21:00 1 0 93,24 13,75
4 17.10.2017 20:30 0 0 92,67 13,77
5 17.10.2017 20:00 0 0 90,67 14,02
6 17.10.2017 19:30 0 0 89,13 14,48
7 17.10.2017 19:00 0 0 88,86 15,07
8 17.10.2017 18:30 0 0 86,13 15,58
9 17.10.2017 18:00 0 0 84,32 15,97
10 17.10.2017 17:30 0 0 87,11 16,09
11 17.10.2017 17:00 0 0 84,71 16,92
12 17.10.2017 16:30 0 0 78,95 18,61
13 17.10.2017 16:00 0 0 71,09 20,07
14 17.10.2017 15:30 0 0 67,94 20,76
15 17.10.2017 15:00 0 0 61,34 22,81
16 17.10.2017 14:30 0 0 58,46 24
17 17.10.2017 14:00 0 0 59,44 23,76
18 17.10.2017 13:30 0 0 59,12 23,96
19 17.10.2017 13:00 0 0 59,1 24,1
20 17.10.2017 12:30 0 0 63,47 22,42
21 17.10.2017 12:00 0 0 64,3 21,54
22 17.10.2017 11:30 0 0 68,72 20
23 17.10.2017 11:00 0 0 74,46 18,8
24 17.10.2017 10:30 0 0 77,68 17,53
25 17.10.2017 10:00 0 0 81,37 15,82
26 17.10.2017 09:30 0 0 79,12 15,58
27 17.10.2017 09:00 0 0 79,39 15,34
28 17.10.2017 08:30 0 0 83,91 13,97
29 17.10.2017 08:00 0 0 84,52 14,16
30 17.10.2017 07:30 9 0 90,87 13,11
31 17.10.2017 07:00 9 0 99,9 10,18
32 17.10.2017 06:30 8 0 99,83 9,11
33 17.10.2017 06:00 7 0 99,66 9,16
34 17.10.2017 05:30 5 0 99,24 9,26
35 17.10.2017 05:00 4 0 98,93 9,52
36 17.10.2017 04:30 3 0 98,85 9,57
37 17.10.2017 04:00 2 0 98,93 9,72
38 17.10.2017 03:30 1 0 98,41 9,82
39 17.10.2017 03:00 1 0 97,58 10,23
40 17.10.2017 02:30 1 0 97,73 10,45
41 17.10.2017 02:00 0 0 94,58 10,79
42 17.10.2017 01:30 0 0 93,14 11,14
43 17.10.2017 01:00 0 0 94,33 11,09
44 17.10.2017 00:30 0 0 92,38 11,38
© 2011 Ministrstvo za kmetijstvo, gozdarstvo in prehrano. Vse pravice pridržane.